sensor_id;sensor_type;location;lat;lon;timestamp;P1;durP1;ratioP1;P2;durP2;ratioP2
3781;SDS011;6881;49.962;7.718;2024-01-27T00:01:22;35.77;;;17.47;;
3781;SDS011;6881;49.962;7.718;2024-01-27T00:03:48;28.47;;;16.13;;
3781;SDS011;6881;49.962;7.718;2024-01-27T00:06:14;32.40;;;15.40;;
3781;SDS011;6881;49.962;7.718;2024-01-27T00:08:40;32.17;;;15.40;;
3781;SDS011;6881;49.962;7.718;2024-01-27T00:11:05;37.87;;;18.60;;
3781;SDS011;6881;49.962;7.718;2024-01-27T00:13:30;43.97;;;18.77;;
3781;SDS011;6881;49.962;7.718;2024-01-27T00:15:56;37.93;;;17.70;;
3781;SDS011;6881;49.962;7.718;2024-01-27T00:18:21;39.10;;;16.40;;
3781;SDS011;6881;49.962;7.718;2024-01-27T00:20:46;45.30;;;21.67;;
3781;SDS011;6881;49.962;7.718;2024-01-27T00:23:12;47.13;;;20.70;;
3781;SDS011;6881;49.962;7.718;2024-01-27T00:25:37;62.70;;;23.67;;
3781;SDS011;6881;49.962;7.718;2024-01-27T00:28:02;99.77;;;37.50;;
3781;SDS011;6881;49.962;7.718;2024-01-27T00:30:28;90.17;;;36.17;;
3781;SDS011;6881;49.962;7.718;2024-01-27T00:32:53;96.50;;;35.20;;
3781;SDS011;6881;49.962;7.718;2024-01-27T00:35:18;60.50;;;24.27;;
3781;SDS011;6881;49.962;7.718;2024-01-27T00:37:44;47.03;;;17.60;;
3781;SDS011;6881;49.962;7.718;2024-01-27T00:40:10;62.40;;;22.30;;
3781;SDS011;6881;49.962;7.718;2024-01-27T00:42:36;52.37;;;22.13;;
3781;SDS011;6881;49.962;7.718;2024-01-27T00:45:02;42.70;;;17.83;;
3781;SDS011;6881;49.962;7.718;2024-01-27T00:47:28;41.03;;;16.40;;
3781;SDS011;6881;49.962;7.718;2024-01-27T00:49:53;37.47;;;16.13;;
3781;SDS011;6881;49.962;7.718;2024-01-27T00:52:19;34.40;;;15.73;;
3781;SDS011;6881;49.962;7.718;2024-01-27T00:54:45;36.37;;;17.43;;
3781;SDS011;6881;49.962;7.718;2024-01-27T00:57:10;26.13;;;12.00;;
3781;SDS011;6881;49.962;7.718;2024-01-27T00:59:35;24.80;;;11.53;;
3781;SDS011;6881;49.962;7.718;2024-01-27T01:02:01;21.67;;;10.07;;
3781;SDS011;6881;49.962;7.718;2024-01-27T01:04:26;12.90;;;6.80;;
3781;SDS011;6881;49.962;7.718;2024-01-27T01:06:52;16.83;;;5.77;;
3781;SDS011;6881;49.962;7.718;2024-01-27T01:09:17;12.20;;;4.27;;
3781;SDS011;6881;49.962;7.718;2024-01-27T01:11:42;8.13;;;3.20;;
3781;SDS011;6881;49.962;7.718;2024-01-27T01:14:08;6.13;;;2.70;;
3781;SDS011;6881;49.962;7.718;2024-01-27T01:16:33;7.63;;;2.77;;
3781;SDS011;6881;49.962;7.718;2024-01-27T01:18:58;11.17;;;2.80;;
3781;SDS011;6881;49.962;7.718;2024-01-27T01:21:24;6.63;;;2.50;;
3781;SDS011;6881;49.962;7.718;2024-01-27T01:23:49;14.93;;;6.30;;
3781;SDS011;6881;49.962;7.718;2024-01-27T01:26:15;19.43;;;9.27;;
3781;SDS011;6881;49.962;7.718;2024-01-27T01:28:40;30.80;;;11.80;;
3781;SDS011;6881;49.962;7.718;2024-01-27T01:31:06;32.00;;;12.53;;
3781;SDS011;6881;49.962;7.718;2024-01-27T01:33:32;28.00;;;9.07;;
3781;SDS011;6881;49.962;7.718;2024-01-27T01:35:57;18.10;;;8.70;;
3781;SDS011;6881;49.962;7.718;2024-01-27T01:38:23;16.00;;;7.03;;
3781;SDS011;6881;49.962;7.718;2024-01-27T01:40:48;13.07;;;5.10;;
3781;SDS011;6881;49.962;7.718;2024-01-27T01:43:13;8.43;;;5.23;;
3781;SDS011;6881;49.962;7.718;2024-01-27T01:45:39;15.23;;;6.70;;
3781;SDS011;6881;49.962;7.718;2024-01-27T01:48:04;34.17;;;12.60;;
3781;SDS011;6881;49.962;7.718;2024-01-27T01:50:31;40.00;;;14.50;;
3781;SDS011;6881;49.962;7.718;2024-01-27T01:52:57;43.13;;;16.90;;
3781;SDS011;6881;49.962;7.718;2024-01-27T01:55:22;29.30;;;15.37;;
3781;SDS011;6881;49.962;7.718;2024-01-27T01:57:48;30.73;;;13.70;;
3781;SDS011;6881;49.962;7.718;2024-01-27T02:00:15;28.57;;;11.53;;
3781;SDS011;6881;49.962;7.718;2024-01-27T02:02:43;22.83;;;10.13;;
3781;SDS011;6881;49.962;7.718;2024-01-27T02:05:14;18.30;;;7.50;;
3781;SDS011;6881;49.962;7.718;2024-01-27T02:07:39;17.70;;;7.30;;
3781;SDS011;6881;49.962;7.718;2024-01-27T02:10:05;18.87;;;6.90;;
3781;SDS011;6881;49.962;7.718;2024-01-27T02:12:32;17.17;;;6.97;;
3781;SDS011;6881;49.962;7.718;2024-01-27T02:14:57;17.17;;;7.80;;
3781;SDS011;6881;49.962;7.718;2024-01-27T02:17:22;22.63;;;9.17;;
3781;SDS011;6881;49.962;7.718;2024-01-27T02:19:48;13.50;;;7.03;;
3781;SDS011;6881;49.962;7.718;2024-01-27T02:22:13;19.20;;;6.33;;
3781;SDS011;6881;49.962;7.718;2024-01-27T02:24:38;8.97;;;5.17;;
3781;SDS011;6881;49.962;7.718;2024-01-27T02:27:04;10.90;;;4.73;;
3781;SDS011;6881;49.962;7.718;2024-01-27T02:29:29;7.63;;;3.60;;
3781;SDS011;6881;49.962;7.718;2024-01-27T02:31:54;10.00;;;3.30;;
3781;SDS011;6881;49.962;7.718;2024-01-27T02:34:20;17.60;;;7.73;;
3781;SDS011;6881;49.962;7.718;2024-01-27T02:36:45;21.33;;;9.67;;
3781;SDS011;6881;49.962;7.718;2024-01-27T02:39:11;19.20;;;8.57;;
3781;SDS011;6881;49.962;7.718;2024-01-27T02:41:36;16.63;;;6.50;;
3781;SDS011;6881;49.962;7.718;2024-01-27T02:44:04;18.73;;;7.13;;
3781;SDS011;6881;49.962;7.718;2024-01-27T02:46:30;17.77;;;6.77;;
3781;SDS011;6881;49.962;7.718;2024-01-27T02:48:55;12.10;;;5.70;;
3781;SDS011;6881;49.962;7.718;2024-01-27T02:51:20;13.20;;;5.80;;
3781;SDS011;6881;49.962;7.718;2024-01-27T02:53:46;11.20;;;5.70;;
3781;SDS011;6881;49.962;7.718;2024-01-27T02:56:11;12.83;;;6.07;;
3781;SDS011;6881;49.962;7.718;2024-01-27T02:58:36;14.77;;;6.63;;
3781;SDS011;6881;49.962;7.718;2024-01-27T03:01:02;11.80;;;5.90;;
3781;SDS011;6881;49.962;7.718;2024-01-27T03:03:27;9.20;;;5.70;;
3781;SDS011;6881;49.962;7.718;2024-01-27T03:05:54;11.40;;;6.00;;
3781;SDS011;6881;49.962;7.718;2024-01-27T03:08:19;24.30;;;13.87;;
3781;SDS011;6881;49.962;7.718;2024-01-27T03:10:44;18.63;;;8.30;;
3781;SDS011;6881;49.962;7.718;2024-01-27T03:13:10;37.23;;;19.50;;
3781;SDS011;6881;49.962;7.718;2024-01-27T03:15:35;37.67;;;16.37;;
3781;SDS011;6881;49.962;7.718;2024-01-27T03:18:02;27.43;;;12.63;;
3781;SDS011;6881;49.962;7.718;2024-01-27T03:20:27;26.77;;;12.43;;
3781;SDS011;6881;49.962;7.718;2024-01-27T03:22:53;29.20;;;13.77;;
3781;SDS011;6881;49.962;7.718;2024-01-27T03:25:18;38.13;;;18.70;;
3781;SDS011;6881;49.962;7.718;2024-01-27T03:27:43;37.90;;;17.67;;
3781;SDS011;6881;49.962;7.718;2024-01-27T03:30:09;20.07;;;13.00;;
3781;SDS011;6881;49.962;7.718;2024-01-27T03:32:35;17.50;;;8.77;;
3781;SDS011;6881;49.962;7.718;2024-01-27T03:35:00;13.23;;;6.57;;
3781;SDS011;6881;49.962;7.718;2024-01-27T03:37:26;15.63;;;5.67;;
3781;SDS011;6881;49.962;7.718;2024-01-27T03:39:51;12.60;;;4.83;;
3781;SDS011;6881;49.962;7.718;2024-01-27T03:42:17;9.00;;;4.17;;
3781;SDS011;6881;49.962;7.718;2024-01-27T03:44:42;3.43;;;1.90;;
3781;SDS011;6881;49.962;7.718;2024-01-27T03:47:07;12.57;;;2.60;;
3781;SDS011;6881;49.962;7.718;2024-01-27T03:49:33;10.13;;;2.67;;
3781;SDS011;6881;49.962;7.718;2024-01-27T03:51:58;7.83;;;3.20;;
3781;SDS011;6881;49.962;7.718;2024-01-27T03:54:23;4.03;;;2.40;;
3781;SDS011;6881;49.962;7.718;2024-01-27T03:56:49;6.07;;;2.70;;
3781;SDS011;6881;49.962;7.718;2024-01-27T03:59:14;12.43;;;3.23;;
3781;SDS011;6881;49.962;7.718;2024-01-27T04:01:39;7.30;;;2.83;;
3781;SDS011;6881;49.962;7.718;2024-01-27T04:04:05;9.70;;;3.53;;
3781;SDS011;6881;49.962;7.718;2024-01-27T04:06:35;11.87;;;3.83;;
3781;SDS011;6881;49.962;7.718;2024-01-27T04:09:01;10.97;;;5.73;;
3781;SDS011;6881;49.962;7.718;2024-01-27T04:11:26;20.03;;;8.33;;
3781;SDS011;6881;49.962;7.718;2024-01-27T04:13:52;19.00;;;7.90;;
3781;SDS011;6881;49.962;7.718;2024-01-27T04:16:17;79.10;;;26.70;;
3781;SDS011;6881;49.962;7.718;2024-01-27T04:18:43;81.33;;;26.07;;
3781;SDS011;6881;49.962;7.718;2024-01-27T04:21:08;55.30;;;17.07;;
3781;SDS011;6881;49.962;7.718;2024-01-27T04:23:33;48.20;;;16.43;;
3781;SDS011;6881;49.962;7.718;2024-01-27T04:25:59;39.47;;;13.70;;
3781;SDS011;6881;49.962;7.718;2024-01-27T04:28:24;81.00;;;25.00;;
3781;SDS011;6881;49.962;7.718;2024-01-27T04:30:50;58.77;;;20.20;;
3781;SDS011;6881;49.962;7.718;2024-01-27T04:33:15;30.00;;;12.70;;
3781;SDS011;6881;49.962;7.718;2024-01-27T04:35:40;26.33;;;8.27;;
3781;SDS011;6881;49.962;7.718;2024-01-27T04:38:07;17.10;;;7.20;;
3781;SDS011;6881;49.962;7.718;2024-01-27T04:40:33;13.17;;;5.07;;
3781;SDS011;6881;49.962;7.718;2024-01-27T04:43:00;8.03;;;3.77;;
3781;SDS011;6881;49.962;7.718;2024-01-27T04:45:26;8.53;;;2.73;;
3781;SDS011;6881;49.962;7.718;2024-01-27T04:47:52;4.27;;;2.20;;
3781;SDS011;6881;49.962;7.718;2024-01-27T04:50:18;4.67;;;2.47;;
3781;SDS011;6881;49.962;7.718;2024-01-27T04:52:44;4.50;;;1.90;;
3781;SDS011;6881;49.962;7.718;2024-01-27T04:55:10;5.33;;;1.73;;
3781;SDS011;6881;49.962;7.718;2024-01-27T04:57:35;5.20;;;2.30;;
3781;SDS011;6881;49.962;7.718;2024-01-27T05:00:00;3.40;;;1.80;;
3781;SDS011;6881;49.962;7.718;2024-01-27T05:02:26;7.73;;;3.57;;
3781;SDS011;6881;49.962;7.718;2024-01-27T05:04:51;10.93;;;4.50;;
3781;SDS011;6881;49.962;7.718;2024-01-27T05:07:16;20.97;;;8.97;;
3781;SDS011;6881;49.962;7.718;2024-01-27T05:09:42;21.17;;;11.37;;
3781;SDS011;6881;49.962;7.718;2024-01-27T05:12:07;30.47;;;18.60;;
3781;SDS011;6881;49.962;7.718;2024-01-27T05:14:32;22.20;;;13.27;;
3781;SDS011;6881;49.962;7.718;2024-01-27T05:16:58;15.73;;;9.90;;
3781;SDS011;6881;49.962;7.718;2024-01-27T05:19:23;15.00;;;8.33;;
3781;SDS011;6881;49.962;7.718;2024-01-27T05:21:48;12.30;;;6.90;;
3781;SDS011;6881;49.962;7.718;2024-01-27T05:24:14;15.10;;;6.40;;
3781;SDS011;6881;49.962;7.718;2024-01-27T05:26:39;19.37;;;6.10;;
3781;SDS011;6881;49.962;7.718;2024-01-27T05:29:04;11.23;;;4.97;;
3781;SDS011;6881;49.962;7.718;2024-01-27T05:31:30;7.10;;;4.33;;
3781;SDS011;6881;49.962;7.718;2024-01-27T05:33:55;14.03;;;5.87;;
3781;SDS011;6881;49.962;7.718;2024-01-27T05:36:20;11.20;;;5.57;;
3781;SDS011;6881;49.962;7.718;2024-01-27T05:38:46;9.63;;;4.83;;
3781;SDS011;6881;49.962;7.718;2024-01-27T05:41:11;20.73;;;5.43;;
3781;SDS011;6881;49.962;7.718;2024-01-27T05:43:36;11.97;;;5.00;;
3781;SDS011;6881;49.962;7.718;2024-01-27T05:46:02;10.60;;;4.60;;
3781;SDS011;6881;49.962;7.718;2024-01-27T05:48:27;10.57;;;4.67;;
3781;SDS011;6881;49.962;7.718;2024-01-27T05:50:59;8.20;;;4.10;;
3781;SDS011;6881;49.962;7.718;2024-01-27T05:53:25;9.90;;;4.40;;
3781;SDS011;6881;49.962;7.718;2024-01-27T05:55:50;13.27;;;4.83;;
3781;SDS011;6881;49.962;7.718;2024-01-27T05:58:16;8.80;;;4.70;;
3781;SDS011;6881;49.962;7.718;2024-01-27T06:00:45;14.00;;;6.20;;
3781;SDS011;6881;49.962;7.718;2024-01-27T06:03:10;10.67;;;4.67;;
3781;SDS011;6881;49.962;7.718;2024-01-27T06:05:36;6.17;;;3.50;;
3781;SDS011;6881;49.962;7.718;2024-01-27T06:08:02;6.63;;;3.03;;
3781;SDS011;6881;49.962;7.718;2024-01-27T06:10:27;4.20;;;2.80;;
3781;SDS011;6881;49.962;7.718;2024-01-27T06:12:52;11.67;;;5.03;;
3781;SDS011;6881;49.962;7.718;2024-01-27T06:15:18;23.67;;;9.73;;
3781;SDS011;6881;49.962;7.718;2024-01-27T06:17:43;16.20;;;9.20;;
3781;SDS011;6881;49.962;7.718;2024-01-27T06:20:08;10.20;;;7.67;;
3781;SDS011;6881;49.962;7.718;2024-01-27T06:22:34;12.93;;;8.07;;
3781;SDS011;6881;49.962;7.718;2024-01-27T06:24:59;9.90;;;6.93;;
3781;SDS011;6881;49.962;7.718;2024-01-27T06:27:25;7.80;;;5.07;;
3781;SDS011;6881;49.962;7.718;2024-01-27T06:29:50;9.57;;;4.27;;
3781;SDS011;6881;49.962;7.718;2024-01-27T06:32:16;13.10;;;4.57;;
3781;SDS011;6881;49.962;7.718;2024-01-27T06:34:41;9.90;;;4.90;;
3781;SDS011;6881;49.962;7.718;2024-01-27T06:37:06;8.13;;;4.50;;
3781;SDS011;6881;49.962;7.718;2024-01-27T06:39:32;11.53;;;5.30;;
3781;SDS011;6881;49.962;7.718;2024-01-27T06:41:57;11.23;;;4.90;;
3781;SDS011;6881;49.962;7.718;2024-01-27T06:44:22;6.93;;;4.33;;
3781;SDS011;6881;49.962;7.718;2024-01-27T06:46:48;11.80;;;5.10;;
3781;SDS011;6881;49.962;7.718;2024-01-27T06:49:15;10.03;;;5.70;;
3781;SDS011;6881;49.962;7.718;2024-01-27T06:51:41;8.60;;;4.43;;
3781;SDS011;6881;49.962;7.718;2024-01-27T06:54:07;5.80;;;4.03;;
3781;SDS011;6881;49.962;7.718;2024-01-27T06:56:32;7.13;;;5.10;;
3781;SDS011;6881;49.962;7.718;2024-01-27T06:58:57;7.37;;;4.47;;
3781;SDS011;6881;49.962;7.718;2024-01-27T07:01:23;13.17;;;3.60;;
3781;SDS011;6881;49.962;7.718;2024-01-27T07:03:48;3.43;;;3.00;;
3781;SDS011;6881;49.962;7.718;2024-01-27T07:06:13;10.23;;;4.27;;
3781;SDS011;6881;49.962;7.718;2024-01-27T07:08:38;11.13;;;3.53;;
3781;SDS011;6881;49.962;7.718;2024-01-27T07:11:04;5.93;;;3.70;;
3781;SDS011;6881;49.962;7.718;2024-01-27T07:13:29;10.60;;;4.50;;
3781;SDS011;6881;49.962;7.718;2024-01-27T07:15:55;6.47;;;4.00;;
3781;SDS011;6881;49.962;7.718;2024-01-27T07:18:21;6.03;;;3.60;;
3781;SDS011;6881;49.962;7.718;2024-01-27T07:20:47;11.10;;;4.80;;
3781;SDS011;6881;49.962;7.718;2024-01-27T07:23:12;9.07;;;4.40;;
3781;SDS011;6881;49.962;7.718;2024-01-27T07:25:38;6.17;;;4.13;;
3781;SDS011;6881;49.962;7.718;2024-01-27T07:28:03;7.33;;;2.67;;
3781;SDS011;6881;49.962;7.718;2024-01-27T07:30:29;7.60;;;2.70;;
3781;SDS011;6881;49.962;7.718;2024-01-27T07:32:56;7.10;;;2.70;;
3781;SDS011;6881;49.962;7.718;2024-01-27T07:35:21;3.53;;;2.27;;
3781;SDS011;6881;49.962;7.718;2024-01-27T07:37:47;6.57;;;2.63;;
3781;SDS011;6881;49.962;7.718;2024-01-27T07:40:12;5.33;;;3.20;;
3781;SDS011;6881;49.962;7.718;2024-01-27T07:42:37;6.50;;;2.50;;
3781;SDS011;6881;49.962;7.718;2024-01-27T07:45:03;2.87;;;1.90;;
3781;SDS011;6881;49.962;7.718;2024-01-27T07:47:28;3.90;;;2.27;;
3781;SDS011;6881;49.962;7.718;2024-01-27T07:49:54;5.97;;;2.33;;
3781;SDS011;6881;49.962;7.718;2024-01-27T07:52:19;11.20;;;5.77;;
3781;SDS011;6881;49.962;7.718;2024-01-27T07:54:45;8.53;;;4.37;;
3781;SDS011;6881;49.962;7.718;2024-01-27T07:57:10;10.40;;;3.40;;
3781;SDS011;6881;49.962;7.718;2024-01-27T07:59:37;8.40;;;2.97;;
3781;SDS011;6881;49.962;7.718;2024-01-27T08:02:02;4.70;;;2.60;;
3781;SDS011;6881;49.962;7.718;2024-01-27T08:04:28;4.70;;;3.20;;
3781;SDS011;6881;49.962;7.718;2024-01-27T08:06:53;6.53;;;2.57;;
3781;SDS011;6881;49.962;7.718;2024-01-27T08:09:19;4.70;;;2.30;;
3781;SDS011;6881;49.962;7.718;2024-01-27T08:11:44;7.30;;;3.00;;
3781;SDS011;6881;49.962;7.718;2024-01-27T08:14:10;6.50;;;2.20;;
3781;SDS011;6881;49.962;7.718;2024-01-27T08:16:35;8.27;;;2.83;;
3781;SDS011;6881;49.962;7.718;2024-01-27T08:19:01;12.30;;;7.33;;
3781;SDS011;6881;49.962;7.718;2024-01-27T08:21:26;9.47;;;6.53;;
3781;SDS011;6881;49.962;7.718;2024-01-27T08:23:52;10.63;;;6.93;;
3781;SDS011;6881;49.962;7.718;2024-01-27T08:26:18;12.53;;;7.63;;
3781;SDS011;6881;49.962;7.718;2024-01-27T08:28:45;12.53;;;7.40;;
3781;SDS011;6881;49.962;7.718;2024-01-27T08:31:11;7.03;;;6.27;;
3781;SDS011;6881;49.962;7.718;2024-01-27T08:33:36;8.40;;;4.87;;
3781;SDS011;6881;49.962;7.718;2024-01-27T08:36:01;5.70;;;3.70;;
3781;SDS011;6881;49.962;7.718;2024-01-27T08:38:27;17.20;;;4.80;;
3781;SDS011;6881;49.962;7.718;2024-01-27T08:40:52;6.47;;;3.77;;
3781;SDS011;6881;49.962;7.718;2024-01-27T08:43:18;6.77;;;2.87;;
3781;SDS011;6881;49.962;7.718;2024-01-27T08:45:43;11.90;;;3.40;;
3781;SDS011;6881;49.962;7.718;2024-01-27T08:48:08;19.10;;;13.27;;
3781;SDS011;6881;49.962;7.718;2024-01-27T08:50:36;13.33;;;8.30;;
3781;SDS011;6881;49.962;7.718;2024-01-27T08:53:01;9.97;;;6.60;;
3781;SDS011;6881;49.962;7.718;2024-01-27T08:55:27;14.53;;;9.57;;
3781;SDS011;6881;49.962;7.718;2024-01-27T08:57:52;12.43;;;7.07;;
3781;SDS011;6881;49.962;7.718;2024-01-27T09:00:17;12.60;;;5.17;;
3781;SDS011;6881;49.962;7.718;2024-01-27T09:02:43;7.53;;;3.57;;
3781;SDS011;6881;49.962;7.718;2024-01-27T09:05:08;6.37;;;2.73;;
3781;SDS011;6881;49.962;7.718;2024-01-27T09:07:34;7.00;;;3.13;;
3781;SDS011;6881;49.962;7.718;2024-01-27T09:10:00;8.50;;;3.03;;
3781;SDS011;6881;49.962;7.718;2024-01-27T09:12:25;5.00;;;2.57;;
3781;SDS011;6881;49.962;7.718;2024-01-27T09:14:50;3.90;;;2.37;;
3781;SDS011;6881;49.962;7.718;2024-01-27T09:17:16;3.97;;;2.63;;
3781;SDS011;6881;49.962;7.718;2024-01-27T09:19:42;5.93;;;2.97;;
3781;SDS011;6881;49.962;7.718;2024-01-27T09:22:07;7.83;;;3.50;;
3781;SDS011;6881;49.962;7.718;2024-01-27T09:24:32;4.70;;;2.77;;
3781;SDS011;6881;49.962;7.718;2024-01-27T09:26:58;8.50;;;3.30;;
3781;SDS011;6881;49.962;7.718;2024-01-27T09:29:23;7.03;;;3.43;;
3781;SDS011;6881;49.962;7.718;2024-01-27T09:31:48;3.80;;;2.97;;
3781;SDS011;6881;49.962;7.718;2024-01-27T09:34:14;6.47;;;3.40;;
3781;SDS011;6881;49.962;7.718;2024-01-27T09:36:39;5.53;;;3.07;;
3781;SDS011;6881;49.962;7.718;2024-01-27T09:39:04;5.87;;;3.80;;
3781;SDS011;6881;49.962;7.718;2024-01-27T09:41:30;10.27;;;3.97;;
3781;SDS011;6881;49.962;7.718;2024-01-27T09:44:02;7.13;;;3.50;;
3781;SDS011;6881;49.962;7.718;2024-01-27T09:46:29;13.47;;;4.67;;
3781;SDS011;6881;49.962;7.718;2024-01-27T09:48:55;6.20;;;4.40;;
3781;SDS011;6881;49.962;7.718;2024-01-27T09:51:21;8.27;;;4.20;;
3781;SDS011;6881;49.962;7.718;2024-01-27T09:53:47;7.90;;;4.10;;
3781;SDS011;6881;49.962;7.718;2024-01-27T09:56:12;5.93;;;3.53;;
3781;SDS011;6881;49.962;7.718;2024-01-27T09:58:43;8.50;;;4.53;;
3781;SDS011;6881;49.962;7.718;2024-01-27T10:01:09;7.50;;;4.50;;
3781;SDS011;6881;49.962;7.718;2024-01-27T10:03:35;11.80;;;4.17;;
3781;SDS011;6881;49.962;7.718;2024-01-27T10:06:01;8.80;;;4.77;;
3781;SDS011;6881;49.962;7.718;2024-01-27T10:08:27;7.10;;;4.90;;
3781;SDS011;6881;49.962;7.718;2024-01-27T10:10:56;7.43;;;5.90;;
3781;SDS011;6881;49.962;7.718;2024-01-27T10:13:21;10.77;;;6.20;;
3781;SDS011;6881;49.962;7.718;2024-01-27T10:16:00;11.03;;;5.60;;
3781;SDS011;6881;49.962;7.718;2024-01-27T10:18:25;4.60;;;2.10;;
3781;SDS011;6881;49.962;7.718;2024-01-27T10:20:51;5.10;;;1.97;;
3781;SDS011;6881;49.962;7.718;2024-01-27T10:23:16;4.10;;;2.97;;
3781;SDS011;6881;49.962;7.718;2024-01-27T10:25:43;6.63;;;3.30;;
3781;SDS011;6881;49.962;7.718;2024-01-27T10:28:08;6.93;;;2.60;;
3781;SDS011;6881;49.962;7.718;2024-01-27T10:30:34;4.10;;;2.20;;
3781;SDS011;6881;49.962;7.718;2024-01-27T10:32:59;4.93;;;2.87;;
3781;SDS011;6881;49.962;7.718;2024-01-27T10:35:25;5.13;;;3.27;;
3781;SDS011;6881;49.962;7.718;2024-01-27T10:37:53;5.60;;;3.60;;
3781;SDS011;6881;49.962;7.718;2024-01-27T10:40:19;4.87;;;2.17;;
3781;SDS011;6881;49.962;7.718;2024-01-27T10:42:45;5.30;;;2.40;;
3781;SDS011;6881;49.962;7.718;2024-01-27T10:45:11;4.40;;;1.70;;
3781;SDS011;6881;49.962;7.718;2024-01-27T10:47:37;4.00;;;2.47;;
3781;SDS011;6881;49.962;7.718;2024-01-27T10:50:03;5.23;;;2.50;;
3781;SDS011;6881;49.962;7.718;2024-01-27T10:52:34;6.03;;;2.40;;
3781;SDS011;6881;49.962;7.718;2024-01-27T10:55:06;7.10;;;2.70;;
3781;SDS011;6881;49.962;7.718;2024-01-27T10:57:36;4.50;;;1.80;;
3781;SDS011;6881;49.962;7.718;2024-01-27T11:00:02;5.73;;;2.10;;
3781;SDS011;6881;49.962;7.718;2024-01-27T11:02:32;4.63;;;2.37;;
3781;SDS011;6881;49.962;7.718;2024-01-27T11:04:58;5.67;;;2.27;;
3781;SDS011;6881;49.962;7.718;2024-01-27T11:07:25;2.83;;;1.83;;
3781;SDS011;6881;49.962;7.718;2024-01-27T11:09:50;3.70;;;1.77;;
3781;SDS011;6881;49.962;7.718;2024-01-27T11:12:19;5.30;;;2.00;;
3781;SDS011;6881;49.962;7.718;2024-01-27T11:14:45;9.00;;;3.20;;
3781;SDS011;6881;49.962;7.718;2024-01-27T11:17:12;5.07;;;3.17;;
3781;SDS011;6881;49.962;7.718;2024-01-27T11:19:39;6.90;;;3.10;;
3781;SDS011;6881;49.962;7.718;2024-01-27T11:22:05;7.47;;;3.30;;
3781;SDS011;6881;49.962;7.718;2024-01-27T11:24:31;6.33;;;2.80;;
3781;SDS011;6881;49.962;7.718;2024-01-27T11:27:00;8.20;;;3.27;;
3781;SDS011;6881;49.962;7.718;2024-01-27T11:29:29;5.10;;;3.00;;
3781;SDS011;6881;49.962;7.718;2024-01-27T11:31:57;6.20;;;2.30;;
3781;SDS011;6881;49.962;7.718;2024-01-27T11:34:22;7.90;;;1.90;;
3781;SDS011;6881;49.962;7.718;2024-01-27T11:36:48;5.50;;;2.03;;
3781;SDS011;6881;49.962;7.718;2024-01-27T11:39:26;3.73;;;2.10;;
3781;SDS011;6881;49.962;7.718;2024-01-27T11:41:52;7.13;;;2.17;;
3781;SDS011;6881;49.962;7.718;2024-01-27T11:44:18;7.30;;;2.70;;
3781;SDS011;6881;49.962;7.718;2024-01-27T11:46:44;5.10;;;2.30;;
3781;SDS011;6881;49.962;7.718;2024-01-27T11:49:19;4.70;;;2.17;;
3781;SDS011;6881;49.962;7.718;2024-01-27T11:51:45;4.50;;;2.20;;
3781;SDS011;6881;49.962;7.718;2024-01-27T11:54:10;5.27;;;1.90;;
3781;SDS011;6881;49.962;7.718;2024-01-27T11:56:35;2.40;;;1.57;;
3781;SDS011;6881;49.962;7.718;2024-01-27T11:59:02;6.50;;;2.00;;
3781;SDS011;6881;49.962;7.718;2024-01-27T12:01:27;4.20;;;1.90;;
3781;SDS011;6881;49.962;7.718;2024-01-27T12:03:53;4.40;;;2.00;;
3781;SDS011;6881;49.962;7.718;2024-01-27T12:06:18;4.07;;;1.67;;
3781;SDS011;6881;49.962;7.718;2024-01-27T12:08:43;4.10;;;1.70;;
3781;SDS011;6881;49.962;7.718;2024-01-27T12:11:12;7.93;;;2.57;;
3781;SDS011;6881;49.962;7.718;2024-01-27T12:13:40;3.40;;;1.60;;
3781;SDS011;6881;49.962;7.718;2024-01-27T12:16:06;5.27;;;1.87;;
3781;SDS011;6881;49.962;7.718;2024-01-27T12:18:33;5.10;;;2.20;;
3781;SDS011;6881;49.962;7.718;2024-01-27T12:20:59;2.50;;;1.23;;
3781;SDS011;6881;49.962;7.718;2024-01-27T12:23:25;9.80;;;1.90;;
3781;SDS011;6881;49.962;7.718;2024-01-27T12:25:53;4.97;;;1.90;;
3781;SDS011;6881;49.962;7.718;2024-01-27T12:28:20;6.00;;;2.30;;
3781;SDS011;6881;49.962;7.718;2024-01-27T12:30:47;5.50;;;2.00;;
3781;SDS011;6881;49.962;7.718;2024-01-27T12:33:14;4.40;;;1.80;;
3781;SDS011;6881;49.962;7.718;2024-01-27T12:35:39;3.73;;;1.87;;
3781;SDS011;6881;49.962;7.718;2024-01-27T12:38:05;4.73;;;2.23;;
3781;SDS011;6881;49.962;7.718;2024-01-27T12:40:31;3.83;;;2.10;;
3781;SDS011;6881;49.962;7.718;2024-01-27T12:42:56;3.87;;;2.10;;
3781;SDS011;6881;49.962;7.718;2024-01-27T12:45:21;3.90;;;1.73;;
3781;SDS011;6881;49.962;7.718;2024-01-27T12:47:47;3.27;;;1.53;;
3781;SDS011;6881;49.962;7.718;2024-01-27T12:50:12;3.33;;;1.63;;
3781;SDS011;6881;49.962;7.718;2024-01-27T12:52:38;6.17;;;2.00;;
3781;SDS011;6881;49.962;7.718;2024-01-27T12:55:04;4.60;;;2.40;;
3781;SDS011;6881;49.962;7.718;2024-01-27T12:57:30;4.20;;;1.70;;
3781;SDS011;6881;49.962;7.718;2024-01-27T12:59:55;3.40;;;1.57;;
3781;SDS011;6881;49.962;7.718;2024-01-27T13:02:20;2.70;;;1.30;;
3781;SDS011;6881;49.962;7.718;2024-01-27T13:04:46;5.10;;;1.67;;
3781;SDS011;6881;49.962;7.718;2024-01-27T13:07:11;2.80;;;1.60;;
3781;SDS011;6881;49.962;7.718;2024-01-27T13:09:36;5.53;;;1.80;;
3781;SDS011;6881;49.962;7.718;2024-01-27T13:12:02;5.17;;;1.87;;
3781;SDS011;6881;49.962;7.718;2024-01-27T13:14:28;3.97;;;2.07;;
3781;SDS011;6881;49.962;7.718;2024-01-27T13:16:54;3.70;;;1.67;;
3781;SDS011;6881;49.962;7.718;2024-01-27T13:19:19;9.10;;;1.80;;
3781;SDS011;6881;49.962;7.718;2024-01-27T13:21:45;2.53;;;1.63;;
3781;SDS011;6881;49.962;7.718;2024-01-27T13:24:10;4.03;;;1.63;;
3781;SDS011;6881;49.962;7.718;2024-01-27T13:26:36;6.83;;;2.60;;
3781;SDS011;6881;49.962;7.718;2024-01-27T13:29:03;6.23;;;3.10;;
3781;SDS011;6881;49.962;7.718;2024-01-27T13:31:30;4.40;;;2.50;;
3781;SDS011;6881;49.962;7.718;2024-01-27T13:33:56;7.37;;;2.00;;
3781;SDS011;6881;49.962;7.718;2024-01-27T13:36:22;4.50;;;1.93;;
3781;SDS011;6881;49.962;7.718;2024-01-27T13:38:48;4.90;;;2.50;;
3781;SDS011;6881;49.962;7.718;2024-01-27T13:41:13;7.10;;;3.10;;
3781;SDS011;6881;49.962;7.718;2024-01-27T13:43:38;6.23;;;2.27;;
3781;SDS011;6881;49.962;7.718;2024-01-27T13:46:04;3.13;;;2.00;;
3781;SDS011;6881;49.962;7.718;2024-01-27T13:48:29;4.33;;;1.93;;
3781;SDS011;6881;49.962;7.718;2024-01-27T13:50:54;4.73;;;2.13;;
3781;SDS011;6881;49.962;7.718;2024-01-27T13:53:20;3.77;;;2.13;;
3781;SDS011;6881;49.962;7.718;2024-01-27T13:55:45;5.93;;;2.43;;
3781;SDS011;6881;49.962;7.718;2024-01-27T13:58:10;5.63;;;2.60;;
3781;SDS011;6881;49.962;7.718;2024-01-27T14:00:36;7.00;;;2.83;;
3781;SDS011;6881;49.962;7.718;2024-01-27T14:03:01;7.03;;;2.20;;
3781;SDS011;6881;49.962;7.718;2024-01-27T14:05:26;6.00;;;2.87;;
3781;SDS011;6881;49.962;7.718;2024-01-27T14:07:52;5.00;;;2.30;;
3781;SDS011;6881;49.962;7.718;2024-01-27T14:10:17;3.30;;;1.70;;
3781;SDS011;6881;49.962;7.718;2024-01-27T14:12:42;6.20;;;1.93;;
3781;SDS011;6881;49.962;7.718;2024-01-27T14:15:08;4.93;;;2.03;;
3781;SDS011;6881;49.962;7.718;2024-01-27T14:17:34;7.23;;;3.90;;
3781;SDS011;6881;49.962;7.718;2024-01-27T14:20:03;9.70;;;3.13;;
3781;SDS011;6881;49.962;7.718;2024-01-27T14:22:29;3.87;;;2.50;;
3781;SDS011;6881;49.962;7.718;2024-01-27T14:24:55;10.10;;;3.13;;
3781;SDS011;6881;49.962;7.718;2024-01-27T14:27:20;5.70;;;2.00;;
3781;SDS011;6881;49.962;7.718;2024-01-27T14:29:51;7.70;;;1.93;;
3781;SDS011;6881;49.962;7.718;2024-01-27T14:32:18;7.00;;;1.93;;
3781;SDS011;6881;49.962;7.718;2024-01-27T14:34:43;5.37;;;1.90;;
3781;SDS011;6881;49.962;7.718;2024-01-27T14:37:08;10.20;;;2.97;;
3781;SDS011;6881;49.962;7.718;2024-01-27T14:39:34;10.67;;;3.60;;
3781;SDS011;6881;49.962;7.718;2024-01-27T14:42:00;7.23;;;3.83;;
3781;SDS011;6881;49.962;7.718;2024-01-27T14:44:29;10.63;;;4.10;;
3781;SDS011;6881;49.962;7.718;2024-01-27T14:46:54;7.50;;;2.70;;
3781;SDS011;6881;49.962;7.718;2024-01-27T14:49:20;7.57;;;3.47;;
3781;SDS011;6881;49.962;7.718;2024-01-27T14:51:47;5.83;;;2.50;;
3781;SDS011;6881;49.962;7.718;2024-01-27T14:54:12;4.33;;;2.37;;
3781;SDS011;6881;49.962;7.718;2024-01-27T14:56:38;5.90;;;2.53;;
3781;SDS011;6881;49.962;7.718;2024-01-27T14:59:03;3.10;;;1.80;;